createdAt,value
2018-01-18T00:01:11.779Z,1.67
2018-01-18T00:03:41.167Z,1.63
2018-01-18T00:06:10.699Z,1.83
2018-01-18T00:08:39.972Z,1.80
2018-01-18T00:11:09.248Z,1.57
2018-01-18T00:13:38.768Z,2.00
2018-01-18T00:16:08.048Z,2.67
2018-01-18T00:18:37.570Z,1.77
2018-01-18T00:21:07.691Z,1.63
2018-01-18T00:23:37.093Z,1.70
2018-01-18T00:26:06.505Z,1.63
2018-01-18T00:28:35.769Z,1.90
2018-01-18T00:31:05.426Z,1.67
2018-01-18T00:36:33.145Z,1.70
2018-01-18T00:39:02.537Z,1.43
2018-01-18T00:41:31.927Z,1.80
2018-01-18T00:44:01.704Z,1.80
2018-01-18T00:46:31.473Z,1.83
2018-01-18T00:49:01.213Z,1.60
2018-01-18T00:51:30.988Z,1.30
2018-01-18T00:54:00.740Z,2.40
2018-01-18T00:56:30.970Z,2.67
2018-01-18T00:59:00.857Z,1.80
2018-01-18T01:01:31.142Z,1.87
2018-01-18T01:04:00.491Z,1.63
2018-01-18T01:06:30.128Z,1.67
2018-01-18T01:08:59.894Z,1.70
2018-01-18T01:11:29.291Z,1.93
2018-01-18T01:13:59.072Z,2.57
2018-01-18T01:16:28.638Z,2.10
2018-01-18T01:18:58.245Z,1.60
2018-01-18T01:21:27.724Z,1.47
2018-01-18T01:23:57.403Z,1.93
2018-01-18T01:26:26.650Z,1.50
2018-01-18T01:28:57.015Z,1.13
2018-01-18T01:31:26.528Z,1.53
2018-01-18T01:33:55.932Z,2.17
2018-01-18T01:36:25.478Z,1.70
2018-01-18T01:38:54.847Z,1.67
2018-01-18T01:41:24.369Z,2.10
2018-01-18T01:43:53.886Z,1.87
2018-01-18T01:46:23.652Z,1.90
2018-01-18T01:48:52.931Z,1.40
2018-01-18T01:51:22.566Z,1.37
2018-01-18T01:53:52.090Z,1.90
2018-01-18T01:56:21.539Z,2.00
2018-01-18T01:58:51.040Z,2.97
2018-01-18T02:01:22.091Z,1.90
2018-01-18T02:03:51.729Z,1.53
2018-01-18T02:06:21.140Z,1.47
2018-01-18T02:08:50.903Z,1.57
2018-01-18T02:11:20.287Z,3.53
2018-01-18T02:13:50.794Z,1.77
2018-01-18T02:16:20.450Z,1.63
2018-01-18T02:18:50.052Z,1.50
2018-01-18T02:21:19.444Z,1.80
2018-01-18T02:23:49.822Z,2.03
2018-01-18T02:26:19.329Z,2.03
2018-01-18T02:28:48.966Z,2.10
2018-01-18T02:31:18.632Z,1.70
2018-01-18T02:33:50.049Z,1.50
2018-01-18T02:36:19.603Z,1.60
2018-01-18T02:38:49.214Z,1.43
2018-01-18T02:41:18.844Z,1.57
2018-01-18T02:43:49.459Z,1.40
2018-01-18T02:46:18.869Z,1.37
2018-01-18T02:48:49.924Z,1.50
2018-01-18T02:51:19.446Z,1.57
2018-01-18T02:53:49.088Z,1.70
2018-01-18T02:56:18.849Z,1.50
2018-01-18T02:58:48.735Z,1.70
2018-01-18T03:01:18.130Z,2.10
2018-01-18T03:03:47.284Z,1.47
2018-01-18T03:06:17.309Z,1.50
2018-01-18T03:08:46.570Z,1.40
2018-01-18T03:11:15.965Z,1.73
2018-01-18T03:13:45.368Z,1.83
2018-01-18T03:16:14.642Z,1.70
2018-01-18T03:18:43.927Z,1.73
2018-01-18T03:21:13.450Z,1.90
2018-01-18T03:23:42.848Z,1.47
2018-01-18T03:26:12.258Z,1.20
2018-01-18T03:28:41.883Z,1.50
2018-01-18T03:31:11.406Z,1.80
2018-01-18T03:33:40.806Z,2.40
2018-01-18T03:36:10.381Z,1.80
2018-01-18T03:38:39.486Z,1.47
2018-01-18T03:41:08.798Z,1.20
2018-01-18T03:43:38.306Z,1.67
2018-01-18T03:46:07.563Z,1.33
2018-01-18T03:48:36.844Z,1.63
2018-01-18T03:51:06.853Z,1.40
2018-01-18T03:53:36.133Z,1.87
2018-01-18T03:56:05.407Z,1.60
2018-01-18T03:58:35.120Z,1.77
2018-01-18T04:01:04.564Z,2.00
2018-01-18T04:03:34.809Z,1.20
2018-01-18T04:06:04.449Z,2.07
2018-01-18T04:08:33.847Z,1.67
2018-01-18T04:11:03.275Z,2.80
2018-01-18T04:13:32.768Z,1.93
2018-01-18T04:16:02.164Z,1.73
2018-01-18T04:18:31.691Z,1.87
2018-01-18T04:21:00.970Z,2.07
2018-01-18T04:23:30.367Z,1.77
2018-01-18T04:25:59.766Z,1.70
2018-01-18T04:28:29.169Z,1.37
2018-01-18T04:30:58.567Z,1.80
2018-01-18T04:33:28.084Z,1.40
2018-01-18T04:35:57.364Z,1.73
2018-01-18T04:38:26.643Z,1.80
2018-01-18T04:40:56.644Z,1.73
2018-01-18T04:43:27.610Z,1.73
2018-01-18T04:45:57.250Z,1.33
2018-01-18T04:48:26.529Z,1.30
2018-01-18T04:50:56.052Z,1.90
2018-01-18T04:53:25.227Z,1.80
2018-01-18T04:55:55.084Z,1.53
2018-01-18T04:58:24.487Z,1.87
2018-01-18T05:00:53.882Z,1.77
2018-01-18T05:03:23.170Z,1.80
2018-01-18T05:05:52.325Z,1.50
2018-01-18T05:08:23.405Z,2.37
2018-01-18T05:10:52.930Z,1.90
2018-01-18T05:13:22.326Z,2.00
2018-01-18T05:15:51.732Z,1.60
2018-01-18T05:18:21.129Z,2.40
2018-01-18T05:20:51.007Z,1.93
2018-01-18T05:23:21.130Z,1.67
2018-01-18T05:25:50.526Z,2.07
2018-01-18T05:28:20.406Z,1.60
2018-01-18T05:30:49.933Z,1.80
2018-01-18T05:33:19.206Z,1.87
2018-01-18T05:35:48.605Z,4.00
2018-01-18T05:38:18.010Z,2.53
2018-01-18T05:40:47.295Z,1.67
2018-01-18T05:43:16.567Z,2.60
2018-01-18T05:45:46.205Z,3.10
2018-01-18T05:48:15.609Z,1.80
2018-01-18T05:50:45.006Z,1.60
2018-01-18T05:53:14.529Z,2.37
2018-01-18T05:55:44.166Z,2.13
2018-01-18T05:58:13.445Z,2.27
2018-01-18T06:00:42.727Z,1.80
2018-01-18T06:03:12.004Z,2.60
2018-01-18T06:05:41.645Z,1.77
2018-01-18T06:08:11.046Z,1.80
2018-01-18T06:10:40.568Z,1.80
2018-01-18T06:13:09.845Z,2.33
2018-01-18T06:15:39.373Z,2.10
2018-01-18T06:18:08.765Z,2.43
2018-01-18T06:20:37.925Z,2.10
2018-01-18T06:23:07.448Z,2.63
2018-01-18T06:25:38.769Z,2.20
2018-01-18T06:28:08.413Z,2.27
2018-01-18T06:30:37.683Z,5.97
2018-01-18T06:33:07.215Z,1.90
2018-01-18T06:35:36.727Z,2.43
2018-01-18T06:38:06.249Z,1.87
2018-01-18T06:40:35.651Z,1.77
2018-01-18T06:43:05.044Z,2.53
2018-01-18T06:45:34.214Z,2.47
2018-01-18T06:48:03.968Z,2.53
2018-01-18T06:50:33.370Z,2.80
2018-01-18T06:53:02.643Z,2.30
2018-01-18T06:55:32.902Z,2.37
2018-01-18T06:58:02.669Z,2.33
2018-01-18T07:00:32.405Z,2.50
2018-01-18T07:03:01.698Z,2.90
2018-01-18T07:05:31.203Z,6.17
2018-01-18T07:08:00.488Z,2.80
2018-01-18T07:10:29.888Z,1.80
2018-01-18T07:12:59.407Z,1.60
2018-01-18T07:15:28.826Z,2.33
2018-01-18T07:17:58.450Z,2.00
2018-01-18T07:20:28.099Z,2.00
2018-01-18T07:22:58.452Z,2.03
2018-01-18T07:25:27.964Z,2.20
2018-01-18T07:27:57.730Z,2.40
2018-01-18T07:30:27.127Z,3.07
2018-01-18T07:32:57.018Z,2.40
2018-01-18T07:35:26.288Z,2.30
2018-01-18T07:37:55.806Z,2.20
2018-01-18T07:40:25.468Z,3.83
2018-01-18T07:42:55.688Z,3.50
2018-01-18T07:45:25.685Z,3.00
2018-01-18T07:47:55.573Z,4.00
2018-01-18T07:50:24.845Z,2.67
2018-01-18T07:52:54.846Z,2.40
2018-01-18T07:55:24.244Z,1.90
2018-01-18T07:57:54.010Z,2.30
2018-01-18T08:00:23.830Z,2.70
2018-01-18T08:02:59.768Z,4.50
2018-01-18T08:05:29.202Z,3.90
2018-01-18T08:07:58.566Z,3.50
2018-01-18T08:10:27.966Z,2.43
2018-01-18T08:12:57.651Z,3.00
2018-01-18T08:15:27.608Z,2.70
2018-01-18T08:17:57.015Z,2.33
2018-01-18T08:20:26.528Z,2.47
2018-01-18T08:22:56.310Z,2.63
2018-01-18T08:25:25.685Z,3.57
2018-01-18T08:27:56.168Z,2.43
2018-01-18T08:30:25.693Z,2.40
2018-01-18T08:32:55.324Z,2.33
2018-01-18T08:35:25.236Z,2.50
2018-01-18T08:37:54.392Z,1.77
2018-01-18T08:40:23.767Z,2.37
2018-01-18T08:42:53.993Z,2.43
2018-01-18T08:45:23.170Z,2.20
2018-01-18T08:47:52.702Z,2.20
2018-01-18T08:50:22.209Z,7.00
2018-01-18T08:52:51.612Z,2.80
2018-01-18T08:55:21.005Z,2.67
2018-01-18T08:57:50.529Z,2.57
2018-01-18T09:00:19.818Z,2.67
2018-01-18T09:02:49.084Z,2.00
2018-01-18T09:05:18.616Z,2.77
2018-01-18T09:07:48.009Z,1.70
2018-01-18T09:10:17.287Z,2.17
2018-01-18T09:12:46.685Z,1.80
2018-01-18T09:15:16.226Z,1.87
2018-01-18T09:17:45.730Z,1.87
2018-01-18T09:20:15.254Z,2.10
2018-01-18T09:22:44.411Z,2.97
2018-01-18T09:25:14.166Z,1.70
2018-01-18T09:27:43.686Z,2.47
2018-01-18T09:30:13.104Z,1.80
2018-01-18T09:32:42.611Z,2.30
2018-01-18T09:35:12.145Z,2.67
2018-01-18T09:37:41.524Z,1.90
2018-01-18T09:40:11.887Z,2.13
2018-01-18T09:42:41.407Z,2.07
2018-01-18T09:45:10.850Z,2.00
2018-01-18T09:47:40.455Z,2.30
2018-01-18T09:50:10.848Z,2.20
2018-01-18T09:52:40.935Z,2.03
2018-01-18T09:55:10.688Z,2.40
2018-01-18T09:57:40.100Z,3.00
2018-01-18T10:00:09.516Z,1.80
2018-01-18T10:02:38.908Z,2.50
2018-01-18T10:05:08.286Z,2.30
2018-01-18T10:07:37.718Z,2.00
2018-01-18T10:10:06.846Z,3.07
2018-01-18T10:12:36.730Z,2.90
2018-01-18T10:15:05.897Z,2.77
2018-01-18T10:17:35.424Z,1.77
2018-01-18T10:20:04.927Z,2.20
2018-01-18T10:22:34.112Z,2.00
2018-01-18T10:25:03.628Z,2.80
2018-01-18T10:27:33.133Z,1.90
2018-01-18T10:30:02.529Z,2.23
2018-01-18T10:32:31.688Z,2.90
2018-01-18T10:35:01.335Z,2.23
2018-01-18T10:37:30.981Z,3.00
2018-01-18T10:40:00.489Z,3.33
2018-01-18T10:42:29.768Z,4.20
2018-01-18T10:44:59.167Z,2.87
2018-01-18T10:47:28.447Z,1.60
2018-01-18T10:49:58.012Z,1.93
2018-01-18T10:52:27.370Z,3.20
2018-01-18T10:54:56.769Z,2.00
2018-01-18T10:57:26.290Z,3.00
2018-01-18T10:59:55.960Z,2.03
2018-01-18T11:02:26.298Z,2.67
2018-01-18T11:04:55.707Z,2.57
2018-01-18T11:07:24.893Z,3.10
2018-01-18T11:09:54.966Z,2.40
2018-01-18T11:12:24.626Z,3.13
2018-01-18T11:14:53.889Z,3.57
2018-01-18T11:17:24.366Z,3.80
2018-01-18T11:19:53.650Z,3.33
2018-01-18T11:22:23.289Z,3.80
2018-01-18T11:24:52.807Z,3.60
2018-01-18T11:27:22.208Z,3.07
2018-01-18T11:29:51.370Z,3.70
2018-01-18T11:32:21.071Z,3.50
2018-01-18T11:34:51.154Z,3.00
2018-01-18T11:37:20.412Z,3.33
2018-01-18T11:39:49.998Z,3.53
2018-01-18T11:42:19.572Z,2.60
2018-01-18T11:44:48.965Z,3.50
2018-01-18T11:47:18.967Z,3.00
2018-01-18T11:49:48.128Z,3.73
2018-01-18T11:52:17.646Z,3.30
2018-01-18T11:54:46.928Z,3.43
2018-01-18T11:57:16.465Z,3.90
2018-01-18T11:59:45.864Z,5.17
2018-01-18T12:02:15.136Z,3.67
2018-01-18T12:04:44.533Z,3.77
2018-01-18T12:07:13.926Z,2.77
2018-01-18T12:09:43.329Z,3.80
2018-01-18T12:12:12.630Z,4.20
2018-01-18T12:14:42.849Z,3.20
2018-01-18T12:17:12.405Z,3.07
2018-01-18T12:19:41.773Z,3.00
2018-01-18T12:22:11.290Z,3.90
2018-01-18T12:24:40.807Z,3.03
2018-01-18T12:27:10.091Z,2.80
2018-01-18T12:29:39.487Z,3.70
2018-01-18T12:32:09.016Z,2.90
2018-01-18T12:34:38.406Z,2.90
2018-01-18T12:37:07.686Z,2.80
2018-01-18T12:39:37.208Z,3.60
2018-01-18T12:42:06.610Z,2.83
2018-01-18T12:44:36.027Z,3.00
2018-01-18T12:47:05.525Z,3.12
2018-01-18T12:49:35.074Z,3.53
2018-01-18T12:52:04.835Z,3.00
2018-01-18T12:54:34.348Z,3.20
2018-01-18T12:57:03.850Z,3.57
2018-01-18T12:59:33.252Z,2.70
2018-01-18T13:02:02.771Z,3.90
2018-01-18T13:04:32.421Z,3.57
2018-01-18T13:07:02.049Z,4.30
2018-01-18T13:09:31.810Z,4.07
2018-01-18T13:12:01.935Z,3.30
2018-01-18T13:14:31.452Z,4.53
2018-01-18T13:17:01.687Z,3.77
2018-01-18T13:19:31.209Z,4.30
2018-01-18T13:22:00.395Z,4.50
2018-01-18T13:24:30.248Z,3.77
2018-01-18T13:27:00.249Z,2.83
2018-01-18T13:29:29.649Z,3.00
2018-01-18T13:31:58.969Z,3.60
2018-01-18T13:34:28.207Z,3.77
2018-01-18T13:36:58.457Z,3.53
2018-01-18T13:39:28.336Z,3.23
2018-01-18T13:41:57.729Z,3.40
2018-01-18T13:44:27.127Z,3.40
2018-01-18T13:46:56.409Z,2.70
2018-01-18T13:49:25.692Z,2.57
2018-01-18T13:51:54.970Z,4.57
2018-01-18T13:54:25.330Z,3.40
2018-01-18T13:56:54.610Z,2.57
2018-01-18T13:59:24.607Z,2.80
2018-01-18T14:01:54.154Z,2.73
2018-01-18T14:04:23.899Z,3.50
2018-01-18T14:06:53.172Z,3.03
2018-01-18T14:09:22.693Z,3.00
2018-01-18T14:11:51.975Z,3.40
2018-01-18T14:14:21.372Z,3.67
2018-01-18T14:16:50.767Z,2.77
2018-01-18T14:19:20.301Z,2.83
2018-01-18T14:21:49.895Z,3.37
2018-01-18T14:24:19.344Z,2.53
2018-01-18T14:26:48.509Z,3.13
2018-01-18T14:29:18.128Z,2.73
2018-01-18T14:31:47.527Z,3.63
2018-01-18T14:34:16.696Z,4.37
2018-01-18T14:36:46.209Z,3.50
2018-01-18T14:39:15.727Z,3.90
2018-01-18T14:41:45.131Z,3.73
2018-01-18T14:44:14.528Z,2.80
2018-01-18T14:46:43.816Z,2.73
2018-01-18T14:49:13.213Z,3.07
2018-01-18T14:51:42.850Z,2.63
2018-01-18T14:54:12.251Z,3.20
2018-01-18T14:56:41.775Z,2.90
2018-01-18T14:59:11.295Z,2.50
2018-01-18T15:01:41.574Z,2.50
2018-01-18T15:04:11.663Z,2.60
2018-01-18T15:06:42.138Z,3.03
2018-01-18T15:09:11.662Z,2.83
2018-01-18T15:11:41.197Z,2.20
2018-01-18T15:14:10.813Z,1.90
2018-01-18T15:16:40.459Z,2.40
2018-01-18T15:19:09.974Z,2.00
2018-01-18T15:21:39.756Z,2.73
2018-01-18T15:24:09.280Z,2.10
2018-01-18T15:26:38.533Z,2.73
2018-01-18T15:29:08.292Z,2.73
2018-01-18T15:31:37.931Z,2.67
2018-01-18T15:34:07.463Z,2.63
2018-01-18T15:36:37.229Z,2.50
2018-01-18T15:39:06.854Z,2.40
2018-01-18T15:41:36.127Z,3.20
2018-01-18T15:44:05.768Z,2.53
2018-01-18T15:46:35.661Z,2.03
2018-01-18T15:49:05.771Z,1.80
2018-01-18T15:51:35.440Z,2.20
2018-01-18T15:54:04.848Z,8.13
2018-01-18T15:56:34.690Z,2.87
2018-01-18T15:59:04.352Z,1.80
2018-01-18T16:01:35.448Z,2.07
2018-01-18T16:04:05.047Z,2.70
2018-01-18T16:06:34.449Z,3.20
2018-01-18T16:09:03.997Z,2.77
2018-01-18T16:11:33.365Z,2.10
2018-01-18T16:14:02.675Z,2.60
2018-01-18T16:16:32.411Z,3.30
2018-01-18T16:19:02.306Z,2.60
2018-01-18T16:21:31.935Z,2.20
2018-01-18T16:24:02.304Z,2.10
2018-01-18T16:26:32.166Z,2.53
2018-01-18T16:29:02.414Z,2.72
2018-01-18T16:31:33.015Z,4.93
2018-01-18T16:34:02.534Z,2.03
2018-01-18T16:36:32.443Z,3.53
2018-01-18T16:39:02.288Z,2.77
2018-01-18T16:41:32.049Z,2.57
2018-01-18T16:44:01.602Z,4.17
2018-01-18T16:46:31.808Z,2.87
2018-01-18T16:49:01.449Z,3.00
2018-01-18T16:51:31.205Z,3.17
2018-01-18T16:54:00.726Z,2.70
2018-01-18T16:56:30.393Z,2.50
2018-01-18T16:59:00.247Z,3.57
2018-01-18T17:01:29.414Z,2.33
2018-01-18T17:03:58.564Z,2.67
2018-01-18T17:06:28.806Z,2.60
2018-01-18T17:08:58.326Z,2.90
2018-01-18T17:11:27.850Z,3.00
2018-01-18T17:13:57.367Z,5.60
2018-01-18T17:16:26.532Z,2.23
2018-01-18T17:18:55.928Z,3.20
2018-01-18T17:21:25.688Z,2.27
2018-01-18T17:23:55.086Z,2.70
2018-01-18T17:26:24.368Z,2.40
2018-01-18T17:28:53.776Z,3.03
2018-01-18T17:31:23.408Z,3.27
2018-01-18T17:33:52.813Z,2.10
2018-01-18T17:36:22.212Z,3.00
2018-01-18T17:38:52.013Z,2.47
2018-01-18T17:41:21.258Z,2.87
2018-01-18T17:43:50.776Z,4.37
2018-01-18T17:46:20.430Z,3.57
2018-01-18T17:48:50.021Z,3.00
2018-01-18T17:51:19.689Z,3.10
2018-01-18T17:53:48.859Z,2.73
2018-01-18T17:56:18.135Z,2.50
2018-01-18T17:58:47.667Z,3.00
2018-01-18T18:01:16.929Z,4.33
2018-01-18T18:03:46.453Z,2.90
2018-01-18T18:06:15.727Z,3.20
2018-01-18T18:08:45.128Z,3.00
2018-01-18T18:11:15.212Z,3.57
2018-01-18T18:13:47.053Z,4.07
2018-01-18T18:16:16.452Z,2.80
2018-01-18T18:18:45.980Z,3.07
2018-01-18T18:21:15.965Z,2.70
2018-01-18T18:23:45.623Z,3.10
2018-01-18T18:26:15.376Z,3.10
2018-01-18T18:28:44.651Z,3.77
2018-01-18T18:31:14.196Z,3.27
2018-01-18T18:33:43.089Z,4.10
2018-01-18T18:36:11.774Z,4.17
2018-01-18T18:38:40.666Z,3.00
2018-01-18T18:41:09.352Z,3.57
2018-01-18T18:43:39.074Z,3.40
2018-01-18T18:46:08.777Z,2.80
2018-01-18T18:48:37.971Z,3.40
2018-01-18T18:51:07.129Z,3.20
2018-01-18T18:53:36.165Z,3.10
2018-01-18T18:56:05.258Z,4.50
2018-01-18T18:58:33.946Z,3.87
2018-01-18T19:01:02.837Z,3.57
2018-01-18T19:03:31.548Z,3.20
2018-01-18T19:06:00.105Z,4.40
2018-01-18T19:08:29.003Z,7.43
2018-01-18T19:10:57.801Z,5.00
2018-01-18T19:13:26.983Z,4.53
2018-01-18T19:15:56.005Z,3.80
2018-01-18T19:18:24.873Z,4.40
2018-01-18T19:20:54.368Z,4.00
2018-01-18T19:23:24.086Z,3.17
2018-01-18T19:25:52.800Z,4.10
2018-01-18T19:28:21.661Z,4.03
2018-01-18T19:30:50.346Z,3.50
2018-01-18T19:33:19.035Z,4.97
2018-01-18T19:35:48.134Z,3.70
2018-01-18T19:38:17.236Z,5.07
2018-01-18T19:40:45.915Z,4.97
2018-01-18T19:43:14.829Z,3.80
2018-01-18T19:45:44.012Z,3.80
2018-01-18T19:48:13.225Z,4.10
2018-01-18T19:50:42.101Z,4.30
2018-01-18T19:53:11.108Z,5.03
2018-01-18T19:55:41.304Z,3.83
2018-01-18T19:58:10.290Z,4.27
2018-01-18T20:00:39.190Z,5.43
2018-01-18T20:03:08.841Z,4.73
2018-01-18T20:05:37.743Z,4.50
2018-01-18T20:08:07.818Z,4.90
2018-01-18T20:10:38.337Z,4.80
2018-01-18T20:13:07.186Z,4.50
2018-01-18T20:15:36.130Z,4.30
2018-01-18T20:18:05.014Z,5.40
2018-01-18T20:20:33.903Z,4.70
2018-01-18T20:23:03.824Z,5.50
2018-01-18T20:25:35.269Z,5.93
2018-01-18T20:28:03.902Z,4.70
2018-01-18T20:30:33.317Z,4.65
2018-01-18T20:33:02.021Z,5.80
2018-01-18T20:35:30.718Z,4.63
2018-01-18T20:37:59.459Z,4.80
2018-01-18T20:40:28.644Z,5.30
2018-01-18T20:42:57.907Z,4.83
2018-01-18T20:45:26.727Z,5.60
2018-01-18T20:47:55.804Z,4.90
2018-01-18T20:50:24.592Z,5.23
2018-01-18T20:52:54.000Z,5.37
2018-01-18T20:55:22.936Z,5.87
2018-01-18T20:57:52.299Z,4.70
2018-01-18T21:00:21.176Z,6.47
2018-01-18T21:02:50.030Z,5.30
2018-01-18T21:05:18.864Z,6.13
2018-01-18T21:07:47.853Z,5.70
2018-01-18T21:10:17.468Z,4.30
2018-01-18T21:12:46.861Z,6.77
2018-01-18T21:15:16.011Z,4.70
2018-01-18T21:17:45.219Z,5.40
2018-01-18T21:20:14.350Z,7.27
2018-01-18T21:22:43.894Z,6.43
2018-01-18T21:25:13.396Z,4.40
2018-01-18T21:27:42.261Z,5.27
2018-01-18T21:30:11.911Z,4.07
2018-01-18T21:32:41.018Z,5.37
2018-01-18T21:35:09.757Z,4.93
2018-01-18T21:37:39.044Z,5.87
2018-01-18T21:40:07.728Z,5.90
2018-01-18T21:42:36.852Z,5.57
2018-01-18T21:45:06.534Z,3.83
2018-01-18T21:47:35.214Z,4.80
2018-01-18T21:50:04.577Z,5.03
2018-01-18T21:52:34.069Z,4.80
2018-01-18T21:58:00.076Z,4.80
2018-01-18T22:00:29.583Z,4.50
2018-01-18T22:02:59.402Z,5.53
2018-01-18T22:05:28.239Z,4.63
2018-01-18T22:07:57.408Z,3.90
2018-01-18T22:10:26.137Z,4.33
2018-01-18T22:12:57.195Z,4.70
2018-01-18T22:15:28.395Z,5.40
2018-01-18T22:17:57.360Z,4.97
2018-01-18T22:20:29.889Z,4.53
2018-01-18T22:23:00.048Z,5.57
2018-01-18T22:25:29.757Z,4.00
2018-01-18T22:27:58.542Z,4.70
2018-01-18T22:30:27.337Z,4.73
2018-01-18T22:32:56.096Z,5.07
2018-01-18T22:35:24.724Z,4.63
2018-01-18T22:37:53.634Z,4.70
2018-01-18T22:40:22.384Z,3.90
2018-01-18T22:42:51.610Z,5.90
2018-01-18T22:45:21.206Z,5.13
2018-01-18T22:47:51.517Z,5.47
2018-01-18T22:50:20.620Z,4.63
2018-01-18T22:52:49.467Z,4.93
2018-01-18T22:55:18.351Z,4.70
2018-01-18T22:57:47.283Z,4.77
2018-01-18T23:00:21.283Z,6.87
2018-01-18T23:02:50.198Z,5.50
2018-01-18T23:05:19.160Z,3.83
2018-01-18T23:10:23.678Z,4.60
2018-01-18T23:12:53.661Z,5.37
2018-01-18T23:15:22.983Z,4.43
2018-01-18T23:17:51.912Z,5.57
2018-01-18T23:20:21.023Z,4.47
2018-01-18T23:22:49.911Z,4.80
2018-01-18T23:25:18.809Z,5.23
2018-01-18T23:27:48.219Z,5.43
2018-01-18T23:30:17.610Z,8.33
2018-01-18T23:32:49.622Z,5.07
2018-01-18T23:35:19.063Z,5.37
2018-01-18T23:37:47.878Z,4.50
2018-01-18T23:40:17.139Z,4.73
2018-01-18T23:42:46.004Z,5.40
2018-01-18T23:45:15.159Z,5.57
2018-01-18T23:47:43.840Z,5.37
2018-01-18T23:50:13.141Z,5.67
2018-01-18T23:52:42.346Z,4.87
2018-01-18T23:55:11.228Z,5.90
2018-01-18T23:57:40.348Z,5.23
